createdAt,value
2022-11-24T00:00:43.645Z,82.02
2022-11-24T00:03:10.180Z,81.98
2022-11-24T00:05:36.757Z,81.82
2022-11-24T00:08:03.171Z,81.57
2022-11-24T00:10:29.598Z,80.45
2022-11-24T00:12:55.988Z,80.15
2022-11-24T00:15:22.410Z,80.58
2022-11-24T00:17:48.837Z,80.57
2022-11-24T00:20:15.359Z,80.75
2022-11-24T00:22:41.784Z,80.89
2022-11-24T00:25:08.207Z,80.72
2022-11-24T00:27:34.631Z,80.22
2022-11-24T00:30:01.061Z,80.73
2022-11-24T00:32:27.474Z,81.59
2022-11-24T00:34:53.891Z,81.16
2022-11-24T00:37:20.326Z,81.79
2022-11-24T00:39:46.739Z,82.02
2022-11-24T00:42:13.155Z,81.08
2022-11-24T00:44:39.657Z,80.81
2022-11-24T00:47:06.198Z,81.42
2022-11-24T00:49:32.682Z,81.47
2022-11-24T00:51:59.079Z,81.30
2022-11-24T00:54:25.499Z,80.49
2022-11-24T00:56:51.915Z,81.00
2022-11-24T00:59:18.361Z,80.79
2022-11-24T01:01:44.880Z,80.61
2022-11-24T01:04:11.374Z,81.42
2022-11-24T01:06:37.780Z,81.53
2022-11-24T01:09:04.205Z,81.49
2022-11-24T01:11:30.636Z,80.99
2022-11-24T01:13:57.087Z,81.94
2022-11-24T01:16:23.573Z,81.77
2022-11-24T01:18:50.075Z,81.23
2022-11-24T01:21:16.488Z,80.95
2022-11-24T01:23:42.895Z,80.57
2022-11-24T01:26:09.315Z,81.03
2022-11-24T01:28:35.741Z,80.61
2022-11-24T01:31:02.220Z,80.67
2022-11-24T01:33:28.695Z,80.84
2022-11-24T01:35:55.108Z,80.84
2022-11-24T01:38:21.533Z,80.59
2022-11-24T01:40:47.985Z,80.83
2022-11-24T01:43:14.374Z,79.86
2022-11-24T01:45:40.990Z,80.22
2022-11-24T01:48:07.690Z,81.10
2022-11-24T01:50:34.270Z,80.91
2022-11-24T01:53:00.693Z,80.86
2022-11-24T01:55:27.100Z,80.92
2022-11-24T01:57:53.522Z,80.18
2022-11-24T02:00:19.930Z,80.58
2022-11-24T02:02:46.420Z,80.73
2022-11-24T02:05:12.885Z,80.70
2022-11-24T02:07:39.327Z,80.85
2022-11-24T02:10:05.780Z,80.27
2022-11-24T02:12:32.187Z,80.96
2022-11-24T02:14:58.633Z,81.14
2022-11-24T02:17:25.049Z,81.57
2022-11-24T02:19:51.460Z,81.92
2022-11-24T02:22:17.878Z,81.34
2022-11-24T02:24:44.302Z,81.32
2022-11-24T02:27:10.746Z,81.63
2022-11-24T02:29:37.170Z,80.84
2022-11-24T02:32:03.565Z,80.42
2022-11-24T02:34:29.972Z,80.86
2022-11-24T02:36:56.645Z,79.81
2022-11-24T02:39:23.103Z,80.19
2022-11-24T02:47:12.444Z,79.08
2022-11-24T02:49:38.852Z,79.57
2022-11-24T02:52:05.247Z,80.50
2022-11-24T02:54:31.934Z,79.78
2022-11-24T02:56:58.696Z,79.72
2022-11-24T02:59:25.091Z,80.23
2022-11-24T03:01:51.516Z,78.96
2022-11-24T03:04:17.976Z,79.90
2022-11-24T03:06:44.371Z,79.61
2022-11-24T03:09:10.918Z,79.42
2022-11-24T03:11:37.315Z,79.48
2022-11-24T03:14:03.712Z,79.70
2022-11-24T03:16:30.156Z,80.33
2022-11-24T03:18:56.590Z,79.98
2022-11-24T03:21:23.035Z,80.75
2022-11-24T03:23:49.456Z,80.66
2022-11-24T03:26:15.888Z,81.55
2022-11-24T03:28:42.326Z,80.29
2022-11-24T03:31:08.784Z,81.21
2022-11-24T03:33:35.257Z,81.46
2022-11-24T03:36:01.755Z,79.97
2022-11-24T03:38:28.159Z,80.09
2022-11-24T03:40:54.549Z,80.17
2022-11-24T03:43:20.978Z,80.10
2022-11-24T03:45:47.400Z,80.43
2022-11-24T03:48:13.797Z,79.31
2022-11-24T03:50:40.239Z,79.62
2022-11-24T03:53:06.662Z,79.47
2022-11-24T03:55:33.082Z,79.63
2022-11-24T03:57:59.480Z,79.47
2022-11-24T04:00:25.875Z,78.83
2022-11-24T04:02:52.325Z,77.96
2022-11-24T04:05:18.788Z,77.62
2022-11-24T04:07:45.409Z,78.77
2022-11-24T04:10:11.843Z,79.25
2022-11-24T04:12:38.244Z,79.69
2022-11-24T04:15:04.641Z,78.78
2022-11-24T04:17:31.058Z,80.33
2022-11-24T04:19:57.484Z,79.81
2022-11-24T04:22:23.914Z,79.53
2022-11-24T04:24:50.338Z,79.64
2022-11-24T04:27:16.745Z,79.73
2022-11-24T04:29:43.199Z,80.70
2022-11-24T04:32:09.615Z,80.78
2022-11-24T04:34:36.280Z,80.84
2022-11-24T04:37:02.795Z,80.69
2022-11-24T04:39:29.199Z,80.86
2022-11-24T04:41:55.780Z,80.87
2022-11-24T04:44:22.195Z,80.85
2022-11-24T04:46:48.676Z,81.21
2022-11-24T04:49:15.152Z,80.12
2022-11-24T04:51:41.603Z,80.91
2022-11-24T04:54:08.014Z,79.68
2022-11-24T04:56:34.425Z,80.39
2022-11-24T04:59:05.221Z,79.68
2022-11-24T05:01:34.624Z,78.85
2022-11-24T05:04:01.206Z,79.29
2022-11-24T05:06:27.677Z,80.12
2022-11-24T05:08:54.112Z,78.90
2022-11-24T05:11:20.530Z,80.73
2022-11-24T05:13:46.922Z,80.47
2022-11-24T05:16:13.377Z,80.44
2022-11-24T05:18:39.835Z,80.76
2022-11-24T05:21:06.291Z,80.25
2022-11-24T05:23:32.696Z,80.59
2022-11-24T05:25:59.127Z,79.97
2022-11-24T05:28:25.522Z,80.57
2022-11-24T05:30:51.969Z,80.31
2022-11-24T05:33:18.361Z,80.26
2022-11-24T05:35:44.799Z,79.98
2022-11-24T05:38:11.325Z,80.53
2022-11-24T05:40:37.717Z,80.02
2022-11-24T05:43:04.111Z,80.25
2022-11-24T05:45:30.570Z,80.79
2022-11-24T05:47:57.022Z,78.88
2022-11-24T05:50:23.461Z,79.79
2022-11-24T05:52:49.909Z,79.45
2022-11-24T05:55:16.313Z,78.96
2022-11-24T05:57:42.757Z,79.94
2022-11-24T06:00:09.176Z,80.02
2022-11-24T06:02:35.732Z,79.74
2022-11-24T06:05:02.208Z,80.51
2022-11-24T06:07:28.692Z,80.74
2022-11-24T06:09:55.160Z,80.22
2022-11-24T06:12:21.732Z,80.00
2022-11-24T06:14:48.142Z,79.85
2022-11-24T06:17:14.636Z,80.01
2022-11-24T06:19:42.293Z,80.47
2022-11-24T06:22:08.839Z,79.90
2022-11-24T06:24:35.525Z,80.90
2022-11-24T06:27:02.171Z,80.37
2022-11-24T06:29:28.656Z,78.27
2022-11-24T06:31:55.183Z,79.88
2022-11-24T06:34:21.687Z,79.14
2022-11-24T06:36:48.120Z,80.02
2022-11-24T06:39:14.546Z,80.89
2022-11-24T06:41:40.989Z,80.75
2022-11-24T06:44:07.404Z,80.49
2022-11-24T06:46:33.821Z,80.17
2022-11-24T06:49:00.532Z,79.05
2022-11-24T06:51:26.975Z,80.27
2022-11-24T06:53:53.445Z,80.15
2022-11-24T06:56:19.895Z,80.93
2022-11-24T06:58:46.315Z,80.29
2022-11-24T07:01:12.774Z,80.65
2022-11-24T07:03:39.278Z,80.82
2022-11-24T07:06:05.683Z,79.52
2022-11-24T07:08:32.128Z,78.61
2022-11-24T07:10:58.570Z,79.27
2022-11-24T07:13:25.024Z,78.71
2022-11-24T07:15:51.422Z,78.44
2022-11-24T07:18:19.076Z,79.99
2022-11-24T07:20:45.506Z,79.78
2022-11-24T07:23:12.044Z,79.79
2022-11-24T07:25:38.478Z,80.27
2022-11-24T07:28:04.973Z,79.13
2022-11-24T07:30:31.402Z,78.99
2022-11-24T07:32:57.823Z,78.33
2022-11-24T07:35:24.257Z,79.76
2022-11-24T07:37:50.665Z,79.11
2022-11-24T07:40:17.074Z,79.58
2022-11-24T07:42:43.538Z,78.25
2022-11-24T07:45:10.000Z,79.43
2022-11-24T07:47:36.460Z,79.84
2022-11-24T07:50:02.896Z,79.27
2022-11-24T07:52:29.324Z,79.45
2022-11-24T07:54:55.776Z,77.86
2022-11-24T07:57:22.216Z,77.71
2022-11-24T07:59:48.679Z,75.84
2022-11-24T08:02:15.119Z,78.74
2022-11-24T08:04:41.828Z,76.84
2022-11-24T08:07:08.426Z,77.99
2022-11-24T08:09:35.110Z,78.03
2022-11-24T08:12:02.596Z,77.81
2022-11-24T08:14:30.200Z,78.08
2022-11-24T08:16:56.692Z,78.15
2022-11-24T08:19:23.174Z,76.45
2022-11-24T08:21:49.967Z,76.72
2022-11-24T08:24:16.544Z,77.24
2022-11-24T08:26:43.140Z,77.51
2022-11-24T08:29:10.736Z,77.63
2022-11-24T08:31:37.439Z,77.62
2022-11-24T08:34:05.006Z,76.59
2022-11-24T08:36:32.557Z,74.40
2022-11-24T08:38:59.157Z,75.59
2022-11-24T08:41:25.805Z,76.82
2022-11-24T08:43:52.404Z,75.85
2022-11-24T08:46:18.950Z,76.38
2022-11-24T08:48:46.610Z,76.47
2022-11-24T08:51:13.199Z,71.89
2022-11-24T08:53:39.776Z,71.83
2022-11-24T08:56:06.385Z,71.60
2022-11-24T08:58:33.149Z,73.38
2022-11-24T09:01:01.607Z,78.09
2022-11-24T09:03:29.189Z,78.17
2022-11-24T09:05:56.807Z,77.88
2022-11-24T09:08:23.346Z,78.26
2022-11-24T09:10:49.973Z,75.84
2022-11-24T09:13:17.544Z,78.31
2022-11-24T09:15:45.136Z,75.86
2022-11-24T09:18:11.818Z,76.31
2022-11-24T09:20:38.443Z,77.58
2022-11-24T09:23:06.067Z,78.11
2022-11-24T09:25:32.671Z,74.82
2022-11-24T09:28:00.285Z,75.56
2022-11-24T09:30:26.895Z,74.61
2022-11-24T09:32:54.504Z,71.79
2022-11-24T09:35:21.083Z,73.23
2022-11-24T09:37:47.666Z,76.44
2022-11-24T09:40:15.275Z,74.81
2022-11-24T09:42:41.857Z,75.24
2022-11-24T09:45:08.268Z,73.68
2022-11-24T09:47:34.704Z,73.68
2022-11-24T09:50:01.162Z,76.23
2022-11-24T09:52:28.235Z,72.87
2022-11-24T09:54:54.646Z,75.59
2022-11-24T09:57:21.412Z,75.61
2022-11-24T09:59:48.256Z,74.94
2022-11-24T10:02:15.605Z,74.44
2022-11-24T10:04:42.289Z,74.62
2022-11-24T10:07:09.868Z,76.52
2022-11-24T10:09:37.489Z,76.53
2022-11-24T10:12:05.023Z,72.39
2022-11-24T10:14:31.599Z,73.00
2022-11-24T10:16:58.193Z,73.79
2022-11-24T10:19:36.273Z,75.28
2022-11-24T10:22:03.579Z,75.42
2022-11-24T10:24:30.052Z,74.54
2022-11-24T10:26:56.444Z,76.37
2022-11-24T10:29:22.820Z,74.46
2022-11-24T10:31:49.278Z,75.32
2022-11-24T10:34:15.694Z,76.42
2022-11-24T10:36:42.217Z,75.94
2022-11-24T10:39:08.786Z,77.25
2022-11-24T10:41:35.224Z,76.63
2022-11-24T10:44:01.628Z,75.28
2022-11-24T10:46:28.040Z,76.21
2022-11-24T10:48:54.496Z,77.35
2022-11-24T10:51:20.923Z,76.61
2022-11-24T10:53:47.358Z,76.92
2022-11-24T10:56:13.759Z,77.25
2022-11-24T10:58:40.190Z,76.51
2022-11-24T11:01:06.689Z,75.09
2022-11-24T11:03:33.200Z,74.92
2022-11-24T11:05:59.655Z,74.43
2022-11-24T11:08:26.159Z,75.01
2022-11-24T11:10:52.594Z,77.46
2022-11-24T11:13:19.022Z,75.92
2022-11-24T11:15:45.458Z,77.32
2022-11-24T11:18:12.059Z,78.58
2022-11-24T11:20:38.489Z,78.16
2022-11-24T11:23:05.017Z,77.82
2022-11-24T11:25:31.619Z,75.83
2022-11-24T11:27:58.048Z,77.05
2022-11-24T11:35:57.335Z,79.37
2022-11-24T11:38:23.792Z,79.11
2022-11-24T11:40:50.267Z,78.60
2022-11-24T11:43:16.743Z,79.41
2022-11-24T11:45:43.251Z,78.63
2022-11-24T11:48:09.682Z,79.56
2022-11-24T11:50:42.916Z,79.85
2022-11-24T11:53:13.963Z,79.05
2022-11-24T11:55:43.962Z,79.11
2022-11-24T11:58:13.101Z,79.34
2022-11-24T12:00:39.513Z,79.39
2022-11-24T12:03:06.050Z,78.34
2022-11-24T12:05:32.578Z,77.48
2022-11-24T12:08:01.327Z,76.43
2022-11-24T12:10:31.469Z,77.54
2022-11-24T12:12:57.890Z,77.38
2022-11-24T12:15:24.319Z,78.12
2022-11-24T12:17:50.753Z,77.08
2022-11-24T12:20:17.226Z,74.88
2022-11-24T12:22:43.634Z,77.45
2022-11-24T12:25:10.083Z,77.24
2022-11-24T12:27:39.355Z,78.78
2022-11-24T12:30:05.797Z,79.10
2022-11-24T12:32:32.228Z,79.08
2022-11-24T12:34:58.743Z,78.70
2022-11-24T12:37:25.160Z,78.66
2022-11-24T12:39:51.585Z,78.77
2022-11-24T12:42:18.036Z,77.95
2022-11-24T12:44:44.482Z,77.73
2022-11-24T12:47:11.056Z,77.65
2022-11-24T12:49:37.804Z,78.47
2022-11-24T12:52:04.413Z,78.19
2022-11-24T12:54:30.851Z,77.18
2022-11-24T12:56:57.288Z,78.80
2022-11-24T12:59:23.714Z,78.24
2022-11-24T13:01:50.218Z,76.43
2022-11-24T13:04:16.693Z,77.78
2022-11-24T13:06:48.812Z,75.38
2022-11-24T13:09:15.968Z,77.35
2022-11-24T13:11:42.394Z,77.04
2022-11-24T13:14:08.810Z,77.39
2022-11-24T13:16:37.162Z,76.88
2022-11-24T13:19:10.830Z,77.79
2022-11-24T13:21:37.315Z,76.64
2022-11-24T13:24:03.747Z,76.24
2022-11-24T13:26:30.180Z,77.35
2022-11-24T13:29:03.594Z,76.74
2022-11-24T13:31:39.739Z,76.69
2022-11-24T13:34:06.198Z,77.20
2022-11-24T13:36:32.658Z,77.71
2022-11-24T13:38:59.081Z,77.04
2022-11-24T13:41:28.848Z,77.73
2022-11-24T13:43:55.369Z,76.77
2022-11-24T13:46:21.849Z,76.31
2022-11-24T13:48:48.322Z,77.65
2022-11-24T13:51:14.729Z,78.94
2022-11-24T13:53:41.219Z,78.05
2022-11-24T13:56:07.597Z,78.22
2022-11-24T13:58:34.051Z,77.31
2022-11-24T14:01:00.588Z,78.45
2022-11-24T14:03:27.696Z,73.03
2022-11-24T14:05:54.240Z,74.11
2022-11-24T14:08:20.640Z,78.16
2022-11-24T14:10:47.055Z,77.70
2022-11-24T14:13:13.450Z,77.88
2022-11-24T14:15:40.080Z,76.28
2022-11-24T14:18:06.592Z,75.08
2022-11-24T14:20:32.984Z,75.02
2022-11-24T14:22:59.424Z,74.75
2022-11-24T14:25:26.903Z,74.52
2022-11-24T14:27:53.576Z,68.98
2022-11-24T14:30:21.144Z,69.69
2022-11-24T14:32:47.598Z,70.48
2022-11-24T14:35:14.112Z,68.95
2022-11-24T14:37:40.592Z,69.63
2022-11-24T14:40:07.124Z,72.58
2022-11-24T14:42:33.577Z,73.63
2022-11-24T14:45:00.045Z,73.25
2022-11-24T14:47:30.841Z,70.98
2022-11-24T14:49:59.023Z,69.34
2022-11-24T14:52:26.552Z,69.78
2022-11-24T14:54:53.166Z,68.58
2022-11-24T14:57:19.562Z,68.81
2022-11-24T14:59:45.970Z,68.98
2022-11-24T15:02:12.381Z,69.81
2022-11-24T15:05:01.688Z,71.92
2022-11-24T15:07:25.205Z,74.81
2022-11-24T15:09:51.654Z,72.96
2022-11-24T15:12:18.090Z,73.11
2022-11-24T15:14:44.489Z,71.33
2022-11-24T15:17:10.942Z,76.17
2022-11-24T15:19:39.145Z,77.38
2022-11-24T15:22:06.779Z,77.61
2022-11-24T15:24:33.456Z,75.11
2022-11-24T15:27:00.111Z,77.94
2022-11-24T15:29:26.529Z,76.64
2022-11-24T15:31:53.267Z,73.66
2022-11-24T15:34:19.813Z,72.76
2022-11-24T15:36:46.252Z,70.91
2022-11-24T15:39:12.675Z,70.83
2022-11-24T15:41:39.132Z,74.49
2022-11-24T15:44:05.554Z,77.51
2022-11-24T15:46:32.026Z,76.07
2022-11-24T15:48:58.522Z,76.77
2022-11-24T15:51:24.955Z,71.80
2022-11-24T15:53:54.107Z,72.02
2022-11-24T15:56:23.553Z,71.60
2022-11-24T15:58:49.968Z,71.56
2022-11-24T16:01:16.580Z,69.86
2022-11-24T16:03:47.759Z,70.65
2022-11-24T16:06:19.115Z,71.45
2022-11-24T16:08:50.039Z,71.26
2022-11-24T16:11:16.445Z,70.85
2022-11-24T16:13:45.647Z,70.65
2022-11-24T16:16:16.749Z,71.00
2022-11-24T16:18:43.200Z,71.75
2022-11-24T16:21:09.642Z,70.62
2022-11-24T16:23:36.031Z,70.35
2022-11-24T16:26:02.463Z,72.68
2022-11-24T16:28:28.903Z,70.69
2022-11-24T16:30:55.312Z,73.03
2022-11-24T16:33:21.726Z,75.62
2022-11-24T16:35:48.166Z,70.98
2022-11-24T16:38:14.593Z,70.88
2022-11-24T16:40:41.025Z,70.88
2022-11-24T16:43:07.434Z,74.59
2022-11-24T16:45:33.912Z,71.62
2022-11-24T16:48:00.382Z,71.60
2022-11-24T16:50:26.783Z,71.75
2022-11-24T16:52:53.214Z,70.22
2022-11-24T16:55:19.612Z,72.17
2022-11-24T16:57:46.027Z,69.13
2022-11-24T17:00:12.427Z,70.22
2022-11-24T17:02:38.926Z,71.74
2022-11-24T17:05:05.388Z,70.27
2022-11-24T17:07:31.873Z,70.35
2022-11-24T17:09:58.346Z,69.16
2022-11-24T17:12:24.745Z,68.70
2022-11-24T17:15:16.516Z,70.81
2022-11-24T17:17:37.657Z,72.90
2022-11-24T17:20:04.109Z,74.10
2022-11-24T17:22:30.553Z,73.09
2022-11-24T17:24:57.003Z,77.26
2022-11-24T17:27:23.477Z,78.72
2022-11-24T17:29:49.921Z,77.87
2022-11-24T17:32:16.366Z,78.13
2022-11-24T17:34:42.838Z,80.32
2022-11-24T17:37:09.274Z,79.21
2022-11-24T17:39:35.682Z,78.96
2022-11-24T17:42:02.117Z,75.63
2022-11-24T17:44:28.517Z,79.79
2022-11-24T17:46:54.905Z,79.25
2022-11-24T17:49:21.299Z,78.69
2022-11-24T17:51:47.724Z,79.05
2022-11-24T17:57:00.514Z,79.96
2022-11-24T17:59:26.919Z,79.47
2022-11-24T18:01:53.358Z,73.95
2022-11-24T18:04:19.820Z,74.85
2022-11-24T18:06:46.239Z,76.03
2022-11-24T18:09:12.642Z,74.82
2022-11-24T18:11:39.066Z,75.17
2022-11-24T18:14:05.516Z,79.29
2022-11-24T18:16:31.997Z,74.82
2022-11-24T18:19:07.843Z,73.24
2022-11-24T18:21:35.111Z,72.50
2022-11-24T18:24:01.526Z,71.91
2022-11-24T18:26:27.946Z,73.05
2022-11-24T18:28:54.858Z,73.86
2022-11-24T18:31:21.353Z,72.55
2022-11-24T18:33:47.799Z,72.61
2022-11-24T18:36:14.218Z,75.04
2022-11-24T18:38:40.698Z,73.67
2022-11-24T18:41:07.157Z,72.28
2022-11-24T18:43:33.610Z,73.25
2022-11-24T18:46:00.144Z,72.52
2022-11-24T18:48:26.658Z,72.23
2022-11-24T18:50:53.067Z,72.67
2022-11-24T18:53:19.458Z,76.00
2022-11-24T18:55:45.915Z,74.76
2022-11-24T18:58:12.369Z,74.03
2022-11-24T19:00:38.775Z,75.22
2022-11-24T19:03:05.181Z,75.07
2022-11-24T19:05:31.619Z,77.98
2022-11-24T19:07:58.089Z,75.96
2022-11-24T19:10:24.549Z,78.64
2022-11-24T19:12:50.955Z,80.02
2022-11-24T19:15:17.368Z,77.54
2022-11-24T19:17:47.159Z,79.70
2022-11-24T19:20:13.855Z,79.66
2022-11-24T19:22:40.271Z,78.95
2022-11-24T19:25:06.682Z,80.03
2022-11-24T19:27:33.095Z,80.39
2022-11-24T19:29:59.530Z,80.12
2022-11-24T19:32:25.938Z,78.79
2022-11-24T19:34:52.339Z,78.84
2022-11-24T19:37:18.739Z,79.64
2022-11-24T19:39:45.155Z,80.07
2022-11-24T19:42:11.572Z,79.39
2022-11-24T19:44:37.990Z,79.83
2022-11-24T19:47:04.437Z,79.38
2022-11-24T19:49:30.850Z,79.00
2022-11-24T19:51:57.233Z,79.77
2022-11-24T19:54:23.668Z,79.67
2022-11-24T19:56:50.105Z,78.76
2022-11-24T19:59:16.499Z,76.77
2022-11-24T20:01:43.023Z,77.81
2022-11-24T20:04:09.541Z,77.91
2022-11-24T20:06:35.935Z,77.15
2022-11-24T20:09:02.350Z,78.28
2022-11-24T20:11:28.784Z,76.21
2022-11-24T20:13:55.363Z,76.85
2022-11-24T20:16:21.930Z,78.59
2022-11-24T20:18:48.366Z,79.44
2022-11-24T20:21:14.776Z,79.09
2022-11-24T20:23:41.212Z,80.33
2022-11-24T20:26:07.633Z,79.81
2022-11-24T20:28:34.075Z,79.75
2022-11-24T20:31:00.475Z,79.88
2022-11-24T20:33:26.884Z,79.74
2022-11-24T20:35:53.277Z,79.51
2022-11-24T20:38:19.691Z,79.86
2022-11-24T20:40:46.114Z,79.37
2022-11-24T20:43:12.556Z,80.20
2022-11-24T20:45:39.037Z,80.65
2022-11-24T20:48:05.480Z,80.42
2022-11-24T20:50:31.921Z,79.52
2022-11-24T20:52:58.342Z,79.54
2022-11-24T20:55:24.777Z,78.91
2022-11-24T20:57:51.229Z,79.50
2022-11-24T21:00:17.621Z,79.61
2022-11-24T21:02:44.055Z,79.84
2022-11-24T21:05:10.484Z,80.01
2022-11-24T21:07:36.919Z,78.78
2022-11-24T21:10:03.327Z,79.78
2022-11-24T21:12:29.707Z,80.82
2022-11-24T21:14:56.137Z,80.03
2022-11-24T21:17:22.550Z,80.01
2022-11-24T21:19:48.968Z,79.76
2022-11-24T21:22:15.387Z,79.64
2022-11-24T21:24:41.807Z,79.71
2022-11-24T21:27:08.288Z,79.89
2022-11-24T21:29:34.717Z,80.23
2022-11-24T21:32:01.227Z,80.26
2022-11-24T21:34:27.674Z,79.51
2022-11-24T21:36:54.077Z,78.57
2022-11-24T21:39:20.528Z,79.72
2022-11-24T21:41:46.978Z,79.82
2022-11-24T21:44:13.569Z,79.77
2022-11-24T21:46:45.099Z,79.29
2022-11-24T21:49:14.402Z,78.61
2022-11-24T21:51:40.812Z,77.96
2022-11-24T21:54:07.255Z,78.55
2022-11-24T21:56:33.682Z,79.28
2022-11-24T21:59:00.096Z,78.41
2022-11-24T22:01:26.583Z,78.14
2022-11-24T22:03:53.019Z,79.97
2022-11-24T22:06:19.414Z,80.67
2022-11-24T22:08:45.812Z,80.30
2022-11-24T22:11:12.188Z,81.03
2022-11-24T22:13:38.559Z,81.25
2022-11-24T22:16:04.974Z,79.99
2022-11-24T22:18:31.378Z,80.69
2022-11-24T22:20:57.758Z,80.40
2022-11-24T22:23:24.162Z,79.86
2022-11-24T22:25:50.551Z,80.57
2022-11-24T22:28:16.958Z,80.11
2022-11-24T22:30:43.368Z,80.55
2022-11-24T22:33:09.738Z,80.58
2022-11-24T22:35:36.103Z,79.97
2022-11-24T22:38:02.527Z,80.07
2022-11-24T22:40:28.931Z,80.90
2022-11-24T22:42:55.356Z,80.83
2022-11-24T22:45:21.778Z,80.75
2022-11-24T22:47:48.166Z,79.60
2022-11-24T22:50:14.594Z,79.75
2022-11-24T22:52:40.988Z,80.20
2022-11-24T22:55:07.422Z,79.37
2022-11-24T22:57:33.831Z,79.68
2022-11-24T23:00:00.208Z,79.18
2022-11-24T23:02:26.622Z,80.15
2022-11-24T23:04:53.043Z,78.05
2022-11-24T23:07:19.468Z,77.56
2022-11-24T23:09:45.909Z,79.36
2022-11-24T23:12:12.300Z,79.69
2022-11-24T23:14:38.729Z,78.15
2022-11-24T23:17:05.158Z,78.91
2022-11-24T23:19:31.543Z,80.41
2022-11-24T23:21:57.935Z,79.70
2022-11-24T23:24:24.342Z,79.34
2022-11-24T23:26:50.750Z,78.38
2022-11-24T23:29:17.171Z,80.33
2022-11-24T23:31:43.603Z,79.34
2022-11-24T23:34:10.038Z,80.20
2022-11-24T23:36:36.439Z,79.15
2022-11-24T23:39:02.849Z,79.36
2022-11-24T23:41:29.268Z,79.92
2022-11-24T23:43:55.713Z,79.82
2022-11-24T23:46:22.164Z,79.87
2022-11-24T23:48:48.584Z,78.59
2022-11-24T23:51:15.002Z,79.61
2022-11-24T23:53:41.501Z,79.66
2022-11-24T23:56:07.913Z,79.37
2022-11-24T23:58:34.322Z,79.56
